This is the latest recevied weather packets stored in our database for station/object KB1FCH. If no packets are shown the sender has not sent any weather packets the latest 10 day(s).
| Time | Temp. | Humidity | Pressure | Rain* | Wind** | Luminosity | Snow |
|---|---|---|---|---|---|---|---|
| 1778004363 | 13.33° C | 87% | 998.6 hPa | 0 mm | - | 66 W/m² | - |
| 1778003163 | 13.33° C | 87% | 998.7 hPa | 0 mm | - | 56 W/m² | - |
| 1777999543 | 13.33° C | 88% | 998.4 hPa | 0 mm | - | 66 W/m² | - |
| 1777998943 | 13.33° C | 89% | 998.5 hPa | 0 mm | - | 63 W/m² | - |
| 1777997743 | 13.33° C | 90% | 998.3 hPa | 0 mm | - | 65 W/m² | - |
| 1777993544 | 12.78° C | 92% | 998 hPa | 0 mm | - | 32 W/m² | - |
| 1777991951 | 12.22° C | 94% | 997.8 hPa | 0 mm | - | 21 W/m² | - |
| 1777991143 | 12.22° C | 95% | 997.7 hPa | 0 mm | - | 18 W/m² | - |
| 1777989944 | 11.67° C | 96% | 997.4 hPa | 0 mm | - | 13 W/m² | - |
| 1777988145 | 11.11° C | 97% | 997.2 hPa | 0 mm | - | 7 W/m² | - |
| 1777985146 | 10.56° C | 97% | 996.7 hPa | 0 mm | - | 1 W/m² | - |
| 1777979136 | 10° C | 97% | 996.2 hPa | 0 mm | - | 0 W/m² | - |
| 1777974429 | 10.56° C | 95% | 995.5 hPa | 0 mm | - | 0 W/m² | - |
| 1777964774 | 12.78° C | 87% | 994.2 hPa | 0 mm | - | 0 W/m² | - |
| 1777963574 | 12.78° C | 86% | 994 hPa | 0 mm | - | 0 W/m² | - |
| 1777962374 | 13.33° C | 84% | 993.9 hPa | 0 mm | - | 0 W/m² | - |
| 1777956994 | 16.11° C | 74% | 993.2 hPa | 0 mm | - | 0 W/m² | - |
| 1777956374 | 16.11° C | 73% | 993.1 hPa | 0 mm | - | 0 W/m² | - |
| 1777955136 | 17.22° C | 69% | 992.8 hPa | 0 mm | - | 0 W/m² | - |
| 1777953935 | 17.78° C | 65% | 992.7 hPa | 0 mm | - | 0 W/m² | - |
| 1777953374 | 18.33° C | 65% | 992.5 hPa | 0 mm | - | 0 W/m² | - |
| 1777950994 | 19.44° C | 69% | 992 hPa | 0 mm | - | 3 W/m² | - |
| 1777949774 | 20.56° C | 65% | 991.8 hPa | 0 mm | - | 8 W/m² | - |
| 1777949120 | 21.11° C | 63% | 991.6 hPa | 0 mm | - | 10 W/m² | - |
| 1777561815 | 8.89° C | 98% | 1003.7 hPa | 0 mm | - | 32 W/m² | - |
* Rain latest hour (hover to see other rain measurements)
** Current wind speed in m/s (hover to see current wind gust speed)